Scenic, South Dakota
Current Conditions -  °F | °C
As of 8:52 PM on Saturday 22 Nov 2014 (Local Time) from KRAP Reporting Station
Broken Clouds Broken Clouds  
Wind Chill: 37°   Ceiling: 9500
Heat Index: 42°   Visibility: 10mi
Dew Point: 31°   Wind: 9mph
Humidity: 65%   Direction: 310°NW
Pressure: 29.43"   Gusts: NA
Location:  43.78°N, 102.56°W
Report Text: KRAP 230352Z 31008KT 10SM BKN095 06/M01 A2943 RMK AO2 RAB20E32 SLP975 T00561006 PNO $
Loading
Personal Weather Stations






























Interactive Weather Map New forecast layout! Learn more

10-Day Weather Forecast

Advertisements
Track Severe Weather on mobile